sensor_id;sensor_type;location;lat;lon;timestamp;P1;durP1;ratioP1;P2;durP2;ratioP2
50104;SDS011;47690;39.202;-77.198;2023-02-26T00:02:19;3.55;;;2.60;;
50104;SDS011;47690;39.202;-77.198;2023-02-26T00:04:51;3.38;;;2.72;;
50104;SDS011;47690;39.202;-77.198;2023-02-26T00:07:29;4.38;;;2.72;;
50104;SDS011;47690;39.202;-77.198;2023-02-26T00:09:59;3.53;;;2.60;;
50104;SDS011;47690;39.202;-77.198;2023-02-26T00:12:34;3.22;;;2.70;;
50104;SDS011;47690;39.202;-77.198;2023-02-26T00:15:05;3.88;;;2.80;;
50104;SDS011;47690;39.202;-77.198;2023-02-26T00:20:43;3.33;;;2.63;;
50104;SDS011;47690;39.202;-77.198;2023-02-26T00:23:21;3.33;;;2.83;;
50104;SDS011;47690;39.202;-77.198;2023-02-26T00:25:56;3.03;;;2.67;;
50104;SDS011;47690;39.202;-77.198;2023-02-26T00:28:31;4.18;;;3.10;;
50104;SDS011;47690;39.202;-77.198;2023-02-26T00:31:03;3.75;;;3.10;;
50104;SDS011;47690;39.202;-77.198;2023-02-26T00:33:35;3.95;;;3.00;;
50104;SDS011;47690;39.202;-77.198;2023-02-26T00:39:14;4.07;;;2.95;;
50104;SDS011;47690;39.202;-77.198;2023-02-26T00:41:41;3.03;;;2.70;;
50104;SDS011;47690;39.202;-77.198;2023-02-26T00:44:11;3.63;;;3.08;;
50104;SDS011;47690;39.202;-77.198;2023-02-26T00:50:11;3.25;;;2.83;;
50104;SDS011;47690;39.202;-77.198;2023-02-26T00:55:39;3.50;;;3.00;;
50104;SDS011;47690;39.202;-77.198;2023-02-26T00:58:12;3.53;;;3.03;;
50104;SDS011;47690;39.202;-77.198;2023-02-26T01:00:43;4.22;;;3.03;;
50104;SDS011;47690;39.202;-77.198;2023-02-26T01:03:15;4.10;;;3.10;;
50104;SDS011;47690;39.202;-77.198;2023-02-26T01:06:00;2.92;;;2.60;;
50104;SDS011;47690;39.202;-77.198;2023-02-26T01:08:36;3.92;;;3.28;;
50104;SDS011;47690;39.202;-77.198;2023-02-26T01:11:16;3.50;;;2.92;;
50104;SDS011;47690;39.202;-77.198;2023-02-26T01:13:48;3.47;;;3.00;;
50104;SDS011;47690;39.202;-77.198;2023-02-26T01:16:24;4.68;;;2.92;;
50104;SDS011;47690;39.202;-77.198;2023-02-26T01:19:04;4.25;;;3.50;;
50104;SDS011;47690;39.202;-77.198;2023-02-26T01:21:45;3.97;;;3.38;;
50104;SDS011;47690;39.202;-77.198;2023-02-26T01:24:19;3.22;;;2.92;;
50104;SDS011;47690;39.202;-77.198;2023-02-26T01:27:00;4.28;;;3.20;;
50104;SDS011;47690;39.202;-77.198;2023-02-26T01:29:38;3.67;;;3.15;;
50104;SDS011;47690;39.202;-77.198;2023-02-26T01:35:18;5.40;;;3.22;;
50104;SDS011;47690;39.202;-77.198;2023-02-26T01:49:34;3.67;;;2.78;;
50104;SDS011;47690;39.202;-77.198;2023-02-26T01:56:14;3.60;;;3.00;;
50104;SDS011;47690;39.202;-77.198;2023-02-26T01:58:47;4.90;;;3.05;;
50104;SDS011;47690;39.202;-77.198;2023-02-26T02:01:19;5.05;;;3.40;;
50104;SDS011;47690;39.202;-77.198;2023-02-26T02:03:50;5.35;;;3.10;;
50104;SDS011;47690;39.202;-77.198;2023-02-26T02:06:20;4.70;;;3.30;;
50104;SDS011;47690;39.202;-77.198;2023-02-26T02:09:03;4.15;;;3.30;;
50104;SDS011;47690;39.202;-77.198;2023-02-26T02:24:35;4.28;;;3.30;;
50104;SDS011;47690;39.202;-77.198;2023-02-26T02:27:34;4.10;;;3.45;;
50104;SDS011;47690;39.202;-77.198;2023-02-26T02:33:10;4.68;;;3.47;;
50104;SDS011;47690;39.202;-77.198;2023-02-26T02:35:51;5.53;;;3.35;;
50104;SDS011;47690;39.202;-77.198;2023-02-26T02:38:35;3.90;;;3.30;;
50104;SDS011;47690;39.202;-77.198;2023-02-26T02:41:19;7.10;;;3.35;;
50104;SDS011;47690;39.202;-77.198;2023-02-26T02:44:02;3.80;;;3.28;;
50104;SDS011;47690;39.202;-77.198;2023-02-26T02:46:38;5.13;;;3.58;;
50104;SDS011;47690;39.202;-77.198;2023-02-26T02:49:43;4.47;;;3.42;;
50104;SDS011;47690;39.202;-77.198;2023-02-26T02:52:36;5.15;;;3.65;;
50104;SDS011;47690;39.202;-77.198;2023-02-26T02:55:22;4.32;;;3.60;;
50104;SDS011;47690;39.202;-77.198;2023-02-26T03:00:39;4.47;;;3.28;;
50104;SDS011;47690;39.202;-77.198;2023-02-26T03:05:54;5.07;;;3.35;;
50104;SDS011;47690;39.202;-77.198;2023-02-26T03:08:31;5.22;;;3.80;;
50104;SDS011;47690;39.202;-77.198;2023-02-26T03:11:11;5.60;;;3.63;;
50104;SDS011;47690;39.202;-77.198;2023-02-26T03:13:48;5.10;;;3.83;;
50104;SDS011;47690;39.202;-77.198;2023-02-26T03:16:50;8.50;;;4.00;;
50104;SDS011;47690;39.202;-77.198;2023-02-26T03:28:14;4.73;;;3.57;;
50104;SDS011;47690;39.202;-77.198;2023-02-26T03:34:02;4.00;;;3.58;;
50104;SDS011;47690;39.202;-77.198;2023-02-26T03:37:00;5.30;;;3.38;;
50104;SDS011;47690;39.202;-77.198;2023-02-26T03:42:56;4.85;;;3.65;;
50104;SDS011;47690;39.202;-77.198;2023-02-26T03:48:18;4.88;;;3.50;;
50104;SDS011;47690;39.202;-77.198;2023-02-26T03:50:59;5.20;;;3.78;;
50104;SDS011;47690;39.202;-77.198;2023-02-26T03:54:14;4.63;;;3.65;;
50104;SDS011;47690;39.202;-77.198;2023-02-26T03:57:03;4.75;;;3.28;;
50104;SDS011;47690;39.202;-77.198;2023-02-26T04:00:08;4.80;;;3.85;;
50104;SDS011;47690;39.202;-77.198;2023-02-26T04:02:43;6.40;;;4.15;;
50104;SDS011;47690;39.202;-77.198;2023-02-26T04:05:25;5.68;;;4.25;;
50104;SDS011;47690;39.202;-77.198;2023-02-26T04:08:03;4.95;;;3.60;;
50104;SDS011;47690;39.202;-77.198;2023-02-26T04:10:43;5.95;;;4.13;;
50104;SDS011;47690;39.202;-77.198;2023-02-26T04:13:43;4.57;;;3.58;;
50104;SDS011;47690;39.202;-77.198;2023-02-26T04:16:20;6.25;;;4.07;;
50104;SDS011;47690;39.202;-77.198;2023-02-26T04:18:56;5.15;;;3.83;;
50104;SDS011;47690;39.202;-77.198;2023-02-26T04:21:33;5.35;;;4.30;;
50104;SDS011;47690;39.202;-77.198;2023-02-26T04:24:09;6.70;;;4.60;;
50104;SDS011;47690;39.202;-77.198;2023-02-26T04:26:39;6.22;;;4.15;;
50104;SDS011;47690;39.202;-77.198;2023-02-26T04:29:10;6.15;;;4.45;;
50104;SDS011;47690;39.202;-77.198;2023-02-26T04:31:40;7.15;;;4.70;;
50104;SDS011;47690;39.202;-77.198;2023-02-26T04:34:14;6.70;;;4.05;;
50104;SDS011;47690;39.202;-77.198;2023-02-26T04:36:59;5.30;;;4.00;;
50104;SDS011;47690;39.202;-77.198;2023-02-26T04:39:32;5.10;;;3.90;;
50104;SDS011;47690;39.202;-77.198;2023-02-26T04:42:30;5.63;;;3.97;;
50104;SDS011;47690;39.202;-77.198;2023-02-26T04:45:01;7.10;;;4.18;;
50104;SDS011;47690;39.202;-77.198;2023-02-26T04:47:34;8.02;;;4.65;;
50104;SDS011;47690;39.202;-77.198;2023-02-26T04:50:09;5.80;;;4.30;;
50104;SDS011;47690;39.202;-77.198;2023-02-26T04:52:41;5.07;;;3.85;;
50104;SDS011;47690;39.202;-77.198;2023-02-26T04:55:13;5.80;;;4.35;;
50104;SDS011;47690;39.202;-77.198;2023-02-26T04:57:43;6.88;;;4.35;;
50104;SDS011;47690;39.202;-77.198;2023-02-26T05:00:16;5.72;;;4.53;;
50104;SDS011;47690;39.202;-77.198;2023-02-26T05:02:49;6.85;;;4.47;;
50104;SDS011;47690;39.202;-77.198;2023-02-26T05:05:19;6.43;;;4.43;;
50104;SDS011;47690;39.202;-77.198;2023-02-26T05:07:58;6.97;;;4.28;;
50104;SDS011;47690;39.202;-77.198;2023-02-26T05:10:35;7.55;;;4.47;;
50104;SDS011;47690;39.202;-77.198;2023-02-26T05:13:07;6.15;;;4.32;;
50104;SDS011;47690;39.202;-77.198;2023-02-26T05:15:39;5.88;;;4.80;;
50104;SDS011;47690;39.202;-77.198;2023-02-26T05:18:17;8.40;;;5.30;;
50104;SDS011;47690;39.202;-77.198;2023-02-26T05:20:54;6.28;;;4.70;;
50104;SDS011;47690;39.202;-77.198;2023-02-26T05:23:31;6.18;;;4.47;;
50104;SDS011;47690;39.202;-77.198;2023-02-26T05:26:03;7.35;;;4.85;;
50104;SDS011;47690;39.202;-77.198;2023-02-26T05:28:37;5.78;;;4.70;;
50104;SDS011;47690;39.202;-77.198;2023-02-26T05:31:08;9.25;;;4.68;;
50104;SDS011;47690;39.202;-77.198;2023-02-26T05:33:39;6.45;;;4.75;;
50104;SDS011;47690;39.202;-77.198;2023-02-26T05:36:15;7.35;;;4.90;;
50104;SDS011;47690;39.202;-77.198;2023-02-26T05:38:46;8.50;;;5.05;;
50104;SDS011;47690;39.202;-77.198;2023-02-26T05:41:25;7.88;;;4.90;;
50104;SDS011;47690;39.202;-77.198;2023-02-26T05:43:59;8.20;;;5.28;;
50104;SDS011;47690;39.202;-77.198;2023-02-26T05:46:33;6.88;;;5.15;;
50104;SDS011;47690;39.202;-77.198;2023-02-26T05:49:06;7.63;;;5.20;;
50104;SDS011;47690;39.202;-77.198;2023-02-26T05:51:39;8.05;;;5.30;;
50104;SDS011;47690;39.202;-77.198;2023-02-26T05:54:15;6.75;;;5.30;;
50104;SDS011;47690;39.202;-77.198;2023-02-26T05:56:46;7.80;;;5.28;;
50104;SDS011;47690;39.202;-77.198;2023-02-26T05:59:16;8.80;;;6.32;;
50104;SDS011;47690;39.202;-77.198;2023-02-26T06:01:46;7.97;;;5.55;;
50104;SDS011;47690;39.202;-77.198;2023-02-26T06:04:17;7.43;;;5.72;;
50104;SDS011;47690;39.202;-77.198;2023-02-26T06:06:49;7.25;;;5.40;;
50104;SDS011;47690;39.202;-77.198;2023-02-26T06:09:21;8.13;;;5.25;;
50104;SDS011;47690;39.202;-77.198;2023-02-26T06:11:51;6.80;;;5.05;;
50104;SDS011;47690;39.202;-77.198;2023-02-26T06:14:34;7.88;;;5.88;;
50104;SDS011;47690;39.202;-77.198;2023-02-26T06:17:03;7.47;;;5.22;;
50104;SDS011;47690;39.202;-77.198;2023-02-26T06:19:37;6.70;;;5.20;;
50104;SDS011;47690;39.202;-77.198;2023-02-26T06:22:07;8.27;;;6.00;;
50104;SDS011;47690;39.202;-77.198;2023-02-26T06:24:39;6.10;;;5.40;;
50104;SDS011;47690;39.202;-77.198;2023-02-26T06:27:11;6.85;;;5.32;;
50104;SDS011;47690;39.202;-77.198;2023-02-26T06:29:43;7.70;;;5.28;;
50104;SDS011;47690;39.202;-77.198;2023-02-26T06:32:15;7.28;;;5.38;;
50104;SDS011;47690;39.202;-77.198;2023-02-26T06:34:47;6.20;;;4.75;;
50104;SDS011;47690;39.202;-77.198;2023-02-26T06:37:18;5.80;;;4.80;;
50104;SDS011;47690;39.202;-77.198;2023-02-26T06:39:47;6.38;;;4.70;;
50104;SDS011;47690;39.202;-77.198;2023-02-26T06:42:18;6.00;;;4.63;;
50104;SDS011;47690;39.202;-77.198;2023-02-26T06:44:48;6.85;;;5.25;;
50104;SDS011;47690;39.202;-77.198;2023-02-26T06:47:18;6.40;;;4.85;;
50104;SDS011;47690;39.202;-77.198;2023-02-26T06:49:49;7.80;;;4.78;;
50104;SDS011;47690;39.202;-77.198;2023-02-26T06:52:21;7.38;;;5.20;;
50104;SDS011;47690;39.202;-77.198;2023-02-26T06:54:56;6.07;;;4.78;;
50104;SDS011;47690;39.202;-77.198;2023-02-26T06:57:30;8.10;;;5.78;;
50104;SDS011;47690;39.202;-77.198;2023-02-26T07:00:00;7.95;;;5.75;;
50104;SDS011;47690;39.202;-77.198;2023-02-26T07:02:33;7.13;;;5.28;;
50104;SDS011;47690;39.202;-77.198;2023-02-26T07:05:03;7.95;;;5.68;;
50104;SDS011;47690;39.202;-77.198;2023-02-26T07:07:36;8.32;;;5.80;;
50104;SDS011;47690;39.202;-77.198;2023-02-26T07:10:07;7.38;;;5.25;;
50104;SDS011;47690;39.202;-77.198;2023-02-26T07:12:39;7.68;;;4.95;;
50104;SDS011;47690;39.202;-77.198;2023-02-26T07:15:20;7.47;;;5.60;;
50104;SDS011;47690;39.202;-77.198;2023-02-26T07:17:55;7.20;;;5.07;;
50104;SDS011;47690;39.202;-77.198;2023-02-26T07:20:30;6.65;;;4.95;;
50104;SDS011;47690;39.202;-77.198;2023-02-26T07:23:01;7.25;;;5.40;;
50104;SDS011;47690;39.202;-77.198;2023-02-26T07:25:31;7.30;;;5.40;;
50104;SDS011;47690;39.202;-77.198;2023-02-26T07:28:10;7.63;;;5.38;;
50104;SDS011;47690;39.202;-77.198;2023-02-26T07:30:41;7.13;;;5.28;;
50104;SDS011;47690;39.202;-77.198;2023-02-26T07:33:11;7.22;;;5.40;;
50104;SDS011;47690;39.202;-77.198;2023-02-26T07:35:43;7.50;;;5.43;;
50104;SDS011;47690;39.202;-77.198;2023-02-26T07:38:14;7.47;;;5.63;;
50104;SDS011;47690;39.202;-77.198;2023-02-26T07:40:47;7.73;;;5.47;;
50104;SDS011;47690;39.202;-77.198;2023-02-26T07:43:19;7.03;;;4.97;;
50104;SDS011;47690;39.202;-77.198;2023-02-26T07:45:50;7.78;;;5.03;;
50104;SDS011;47690;39.202;-77.198;2023-02-26T07:48:30;7.38;;;5.47;;
50104;SDS011;47690;39.202;-77.198;2023-02-26T07:51:01;6.93;;;5.28;;
50104;SDS011;47690;39.202;-77.198;2023-02-26T07:53:32;7.90;;;5.82;;
50104;SDS011;47690;39.202;-77.198;2023-02-26T07:56:07;7.43;;;5.38;;
50104;SDS011;47690;39.202;-77.198;2023-02-26T07:58:46;7.88;;;5.97;;
50104;SDS011;47690;39.202;-77.198;2023-02-26T08:01:18;6.97;;;5.03;;
50104;SDS011;47690;39.202;-77.198;2023-02-26T08:03:55;8.07;;;5.40;;
50104;SDS011;47690;39.202;-77.198;2023-02-26T08:06:30;9.43;;;5.43;;
50104;SDS011;47690;39.202;-77.198;2023-02-26T08:09:06;8.70;;;5.82;;
50104;SDS011;47690;39.202;-77.198;2023-02-26T08:11:41;9.18;;;6.30;;
50104;SDS011;47690;39.202;-77.198;2023-02-26T08:14:13;9.90;;;5.90;;
50104;SDS011;47690;39.202;-77.198;2023-02-26T08:16:52;7.45;;;5.68;;
50104;SDS011;47690;39.202;-77.198;2023-02-26T08:19:30;8.15;;;5.55;;
50104;SDS011;47690;39.202;-77.198;2023-02-26T08:22:02;8.40;;;6.10;;
50104;SDS011;47690;39.202;-77.198;2023-02-26T08:24:34;7.55;;;5.70;;
50104;SDS011;47690;39.202;-77.198;2023-02-26T08:27:04;8.52;;;5.97;;
50104;SDS011;47690;39.202;-77.198;2023-02-26T08:29:37;7.88;;;5.85;;
50104;SDS011;47690;39.202;-77.198;2023-02-26T08:32:07;9.63;;;5.95;;
50104;SDS011;47690;39.202;-77.198;2023-02-26T08:34:39;6.38;;;5.05;;
50104;SDS011;47690;39.202;-77.198;2023-02-26T08:37:11;8.95;;;5.82;;
50104;SDS011;47690;39.202;-77.198;2023-02-26T08:39:42;7.60;;;5.65;;
50104;SDS011;47690;39.202;-77.198;2023-02-26T08:42:12;7.03;;;5.40;;
50104;SDS011;47690;39.202;-77.198;2023-02-26T08:44:43;10.30;;;5.82;;
50104;SDS011;47690;39.202;-77.198;2023-02-26T08:47:15;6.75;;;5.25;;
50104;SDS011;47690;39.202;-77.198;2023-02-26T08:49:55;6.45;;;5.28;;
50104;SDS011;47690;39.202;-77.198;2023-02-26T08:52:30;6.93;;;5.35;;
50104;SDS011;47690;39.202;-77.198;2023-02-26T08:55:00;7.78;;;5.43;;
50104;SDS011;47690;39.202;-77.198;2023-02-26T08:57:35;8.88;;;5.75;;
50104;SDS011;47690;39.202;-77.198;2023-02-26T09:00:08;6.35;;;4.80;;
50104;SDS011;47690;39.202;-77.198;2023-02-26T09:02:40;6.60;;;5.15;;
50104;SDS011;47690;39.202;-77.198;2023-02-26T09:05:14;7.63;;;5.22;;
50104;SDS011;47690;39.202;-77.198;2023-02-26T09:07:45;6.82;;;5.25;;
50104;SDS011;47690;39.202;-77.198;2023-02-26T09:10:22;5.97;;;4.88;;
50104;SDS011;47690;39.202;-77.198;2023-02-26T09:13:03;8.57;;;5.65;;
50104;SDS011;47690;39.202;-77.198;2023-02-26T09:15:33;6.95;;;5.28;;
50104;SDS011;47690;39.202;-77.198;2023-02-26T09:20:43;5.38;;;3.83;;
50104;SDS011;47690;39.202;-77.198;2023-02-26T09:23:17;7.70;;;4.88;;
50104;SDS011;47690;39.202;-77.198;2023-02-26T09:25:52;6.95;;;5.03;;
50104;SDS011;47690;39.202;-77.198;2023-02-26T09:28:33;8.00;;;5.25;;
50104;SDS011;47690;39.202;-77.198;2023-02-26T09:31:10;6.47;;;4.80;;
50104;SDS011;47690;39.202;-77.198;2023-02-26T09:33:39;7.50;;;5.03;;
50104;SDS011;47690;39.202;-77.198;2023-02-26T09:36:18;7.07;;;5.22;;
50104;SDS011;47690;39.202;-77.198;2023-02-26T09:38:49;7.47;;;5.05;;
50104;SDS011;47690;39.202;-77.198;2023-02-26T09:41:33;7.82;;;5.13;;
50104;SDS011;47690;39.202;-77.198;2023-02-26T09:47:24;7.68;;;4.88;;
50104;SDS011;47690;39.202;-77.198;2023-02-26T09:55:37;7.32;;;4.93;;
50104;SDS011;47690;39.202;-77.198;2023-02-26T10:01:09;6.72;;;4.60;;
50104;SDS011;47690;39.202;-77.198;2023-02-26T10:06:30;7.80;;;4.70;;
50104;SDS011;47690;39.202;-77.198;2023-02-26T10:14:25;7.07;;;4.43;;
50104;SDS011;47690;39.202;-77.198;2023-02-26T10:20:00;5.50;;;3.80;;
50104;SDS011;47690;39.202;-77.198;2023-02-26T10:22:48;5.15;;;4.22;;
50104;SDS011;47690;39.202;-77.198;2023-02-26T10:25:43;5.45;;;4.15;;
50104;SDS011;47690;39.202;-77.198;2023-02-26T10:28:26;7.45;;;3.85;;
50104;SDS011;47690;39.202;-77.198;2023-02-26T10:34:50;4.22;;;3.67;;
50104;SDS011;47690;39.202;-77.198;2023-02-26T10:46:16;4.80;;;3.57;;
50104;SDS011;47690;39.202;-77.198;2023-02-26T10:52:20;5.40;;;3.63;;
50104;SDS011;47690;39.202;-77.198;2023-02-26T10:57:54;4.72;;;3.60;;
50104;SDS011;47690;39.202;-77.198;2023-02-26T11:00:36;5.45;;;3.58;;
50104;SDS011;47690;39.202;-77.198;2023-02-26T11:03:15;5.55;;;3.75;;
50104;SDS011;47690;39.202;-77.198;2023-02-26T11:06:00;5.25;;;3.45;;
50104;SDS011;47690;39.202;-77.198;2023-02-26T11:08:38;4.45;;;3.42;;
50104;SDS011;47690;39.202;-77.198;2023-02-26T11:14:08;4.82;;;3.85;;
50104;SDS011;47690;39.202;-77.198;2023-02-26T11:16:49;5.22;;;3.42;;
50104;SDS011;47690;39.202;-77.198;2023-02-26T11:19:34;4.70;;;3.35;;
50104;SDS011;47690;39.202;-77.198;2023-02-26T11:22:10;5.65;;;3.47;;
50104;SDS011;47690;39.202;-77.198;2023-02-26T11:24:44;4.47;;;3.50;;
50104;SDS011;47690;39.202;-77.198;2023-02-26T11:27:26;4.32;;;3.60;;
50104;SDS011;47690;39.202;-77.198;2023-02-26T11:30:09;4.55;;;3.50;;
50104;SDS011;47690;39.202;-77.198;2023-02-26T11:32:49;3.58;;;3.15;;
50104;SDS011;47690;39.202;-77.198;2023-02-26T11:35:25;5.07;;;3.83;;
50104;SDS011;47690;39.202;-77.198;2023-02-26T11:38:01;4.32;;;3.40;;
50104;SDS011;47690;39.202;-77.198;2023-02-26T11:40:40;4.97;;;3.58;;
50104;SDS011;47690;39.202;-77.198;2023-02-26T11:43:19;4.97;;;3.75;;
50104;SDS011;47690;39.202;-77.198;2023-02-26T11:46:02;4.60;;;3.55;;
50104;SDS011;47690;39.202;-77.198;2023-02-26T11:48:46;4.05;;;3.55;;
50104;SDS011;47690;39.202;-77.198;2023-02-26T11:51:21;4.72;;;3.47;;
50104;SDS011;47690;39.202;-77.198;2023-02-26T11:54:02;4.38;;;3.58;;
50104;SDS011;47690;39.202;-77.198;2023-02-26T11:56:42;4.72;;;3.45;;
50104;SDS011;47690;39.202;-77.198;2023-02-26T12:02:05;5.25;;;3.75;;
50104;SDS011;47690;39.202;-77.198;2023-02-26T12:04:49;5.82;;;3.72;;
50104;SDS011;47690;39.202;-77.198;2023-02-26T12:07:35;5.63;;;3.53;;
50104;SDS011;47690;39.202;-77.198;2023-02-26T12:10:20;5.00;;;3.80;;
50104;SDS011;47690;39.202;-77.198;2023-02-26T12:13:07;5.05;;;3.67;;
50104;SDS011;47690;39.202;-77.198;2023-02-26T12:24:33;6.25;;;3.22;;
50104;SDS011;47690;39.202;-77.198;2023-02-26T12:30:48;4.95;;;3.13;;
50104;SDS011;47690;39.202;-77.198;2023-02-26T12:33:54;3.95;;;3.45;;
50104;SDS011;47690;39.202;-77.198;2023-02-26T12:40:04;4.30;;;3.38;;
50104;SDS011;47690;39.202;-77.198;2023-02-26T12:57:53;3.95;;;2.95;;
50104;SDS011;47690;39.202;-77.198;2023-02-26T13:03:27;4.03;;;2.95;;
50104;SDS011;47690;39.202;-77.198;2023-02-26T13:09:16;3.72;;;2.80;;
50104;SDS011;47690;39.202;-77.198;2023-02-26T13:12:15;3.92;;;2.92;;
50104;SDS011;47690;39.202;-77.198;2023-02-26T13:21:09;3.42;;;2.75;;
50104;SDS011;47690;39.202;-77.198;2023-02-26T13:23:49;2.90;;;2.60;;
50104;SDS011;47690;39.202;-77.198;2023-02-26T13:26:30;3.22;;;2.92;;
50104;SDS011;47690;39.202;-77.198;2023-02-26T13:29:10;3.65;;;3.05;;
50104;SDS011;47690;39.202;-77.198;2023-02-26T13:31:44;2.83;;;2.55;;
50104;SDS011;47690;39.202;-77.198;2023-02-26T13:34:34;4.85;;;3.15;;
50104;SDS011;47690;39.202;-77.198;2023-02-26T13:40:14;3.72;;;3.08;;
50104;SDS011;47690;39.202;-77.198;2023-02-26T13:51:33;3.78;;;3.00;;
50104;SDS011;47690;39.202;-77.198;2023-02-26T13:59:34;4.30;;;3.13;;
50104;SDS011;47690;39.202;-77.198;2023-02-26T14:05:00;5.05;;;3.55;;
50104;SDS011;47690;39.202;-77.198;2023-02-26T14:07:53;3.88;;;3.17;;
50104;SDS011;47690;39.202;-77.198;2023-02-26T14:13:33;3.80;;;2.92;;
50104;SDS011;47690;39.202;-77.198;2023-02-26T14:18:51;4.93;;;3.70;;
50104;SDS011;47690;39.202;-77.198;2023-02-26T14:26:46;4.00;;;3.33;;
50104;SDS011;47690;39.202;-77.198;2023-02-26T14:29:38;5.20;;;3.85;;
50104;SDS011;47690;39.202;-77.198;2023-02-26T14:32:13;4.05;;;3.58;;
50104;SDS011;47690;39.202;-77.198;2023-02-26T14:34:47;5.95;;;4.30;;
50104;SDS011;47690;39.202;-77.198;2023-02-26T14:37:26;4.63;;;3.90;;
50104;SDS011;47690;39.202;-77.198;2023-02-26T14:42:47;4.72;;;3.78;;
50104;SDS011;47690;39.202;-77.198;2023-02-26T14:45:31;4.63;;;3.72;;
50104;SDS011;47690;39.202;-77.198;2023-02-26T14:48:12;5.13;;;4.10;;
50104;SDS011;47690;39.202;-77.198;2023-02-26T15:05:21;3.72;;;3.25;;
50104;SDS011;47690;39.202;-77.198;2023-02-26T15:11:31;4.07;;;3.08;;
50104;SDS011;47690;39.202;-77.198;2023-02-26T15:22:49;4.60;;;3.50;;
50104;SDS011;47690;39.202;-77.198;2023-02-26T15:25:41;3.85;;;3.28;;
50104;SDS011;47690;39.202;-77.198;2023-02-26T15:28:29;4.72;;;3.70;;
50104;SDS011;47690;39.202;-77.198;2023-02-26T15:31:08;3.97;;;3.08;;
50104;SDS011;47690;39.202;-77.198;2023-02-26T15:33:43;4.43;;;3.65;;
50104;SDS011;47690;39.202;-77.198;2023-02-26T15:36:17;5.03;;;3.78;;
50104;SDS011;47690;39.202;-77.198;2023-02-26T15:38:59;4.63;;;3.72;;
50104;SDS011;47690;39.202;-77.198;2023-02-26T15:41:38;5.10;;;3.83;;
50104;SDS011;47690;39.202;-77.198;2023-02-26T15:44:14;4.55;;;4.05;;
50104;SDS011;47690;39.202;-77.198;2023-02-26T15:46:52;4.10;;;3.60;;
50104;SDS011;47690;39.202;-77.198;2023-02-26T15:49:33;5.15;;;4.10;;
50104;SDS011;47690;39.202;-77.198;2023-02-26T15:52:15;4.45;;;3.70;;
50104;SDS011;47690;39.202;-77.198;2023-02-26T15:55:02;4.18;;;3.40;;
50104;SDS011;47690;39.202;-77.198;2023-02-26T15:57:36;4.30;;;3.40;;
50104;SDS011;47690;39.202;-77.198;2023-02-26T16:00:15;4.32;;;3.42;;
50104;SDS011;47690;39.202;-77.198;2023-02-26T16:03:04;3.83;;;3.15;;
50104;SDS011;47690;39.202;-77.198;2023-02-26T16:05:36;4.10;;;3.65;;
50104;SDS011;47690;39.202;-77.198;2023-02-26T16:08:12;4.15;;;3.50;;
50104;SDS011;47690;39.202;-77.198;2023-02-26T16:10:46;3.78;;;3.30;;
50104;SDS011;47690;39.202;-77.198;2023-02-26T16:13:16;4.03;;;3.22;;
50104;SDS011;47690;39.202;-77.198;2023-02-26T16:16:17;4.30;;;3.15;;
50104;SDS011;47690;39.202;-77.198;2023-02-26T16:19:02;4.17;;;3.23;;
50104;SDS011;47690;39.202;-77.198;2023-02-26T16:21:36;3.55;;;2.90;;
50104;SDS011;47690;39.202;-77.198;2023-02-26T16:24:17;4.30;;;3.45;;
50104;SDS011;47690;39.202;-77.198;2023-02-26T16:27:06;4.00;;;3.42;;
50104;SDS011;47690;39.202;-77.198;2023-02-26T16:29:46;4.28;;;3.13;;
50104;SDS011;47690;39.202;-77.198;2023-02-26T16:32:21;3.95;;;3.28;;
50104;SDS011;47690;39.202;-77.198;2023-02-26T16:35:09;4.32;;;3.42;;
50104;SDS011;47690;39.202;-77.198;2023-02-26T16:37:45;2.90;;;2.65;;
50104;SDS011;47690;39.202;-77.198;2023-02-26T16:40:25;3.85;;;3.00;;
50104;SDS011;47690;39.202;-77.198;2023-02-26T16:46:04;4.20;;;3.05;;
50104;SDS011;47690;39.202;-77.198;2023-02-26T16:51:35;3.53;;;2.92;;
50104;SDS011;47690;39.202;-77.198;2023-02-26T16:54:17;3.03;;;2.70;;
50104;SDS011;47690;39.202;-77.198;2023-02-26T16:59:36;3.63;;;2.72;;
50104;SDS011;47690;39.202;-77.198;2023-02-26T17:02:19;3.47;;;2.80;;
50104;SDS011;47690;39.202;-77.198;2023-02-26T17:04:57;3.95;;;3.17;;
50104;SDS011;47690;39.202;-77.198;2023-02-26T17:07:44;3.17;;;2.88;;
50104;SDS011;47690;39.202;-77.198;2023-02-26T17:10:23;3.22;;;2.92;;
50104;SDS011;47690;39.202;-77.198;2023-02-26T17:16:04;3.45;;;2.95;;
50104;SDS011;47690;39.202;-77.198;2023-02-26T17:18:40;4.03;;;2.97;;
50104;SDS011;47690;39.202;-77.198;2023-02-26T17:21:14;3.35;;;2.70;;
50104;SDS011;47690;39.202;-77.198;2023-02-26T17:23:46;3.25;;;2.75;;
50104;SDS011;47690;39.202;-77.198;2023-02-26T17:26:19;3.17;;;2.67;;
50104;SDS011;47690;39.202;-77.198;2023-02-26T17:28:56;3.22;;;2.75;;
50104;SDS011;47690;39.202;-77.198;2023-02-26T17:31:34;4.15;;;2.78;;
50104;SDS011;47690;39.202;-77.198;2023-02-26T17:34:08;3.33;;;2.83;;
50104;SDS011;47690;39.202;-77.198;2023-02-26T17:36:43;3.40;;;2.78;;
50104;SDS011;47690;39.202;-77.198;2023-02-26T17:39:15;3.95;;;2.78;;
50104;SDS011;47690;39.202;-77.198;2023-02-26T17:41:47;3.28;;;2.63;;
50104;SDS011;47690;39.202;-77.198;2023-02-26T17:44:19;3.05;;;2.75;;
50104;SDS011;47690;39.202;-77.198;2023-02-26T17:46:55;3.13;;;2.80;;
50104;SDS011;47690;39.202;-77.198;2023-02-26T17:49:34;2.90;;;2.60;;
50104;SDS011;47690;39.202;-77.198;2023-02-26T17:52:06;3.53;;;2.58;;
50104;SDS011;47690;39.202;-77.198;2023-02-26T17:54:40;3.17;;;2.67;;
50104;SDS011;47690;39.202;-77.198;2023-02-26T17:57:15;2.83;;;2.42;;
50104;SDS011;47690;39.202;-77.198;2023-02-26T17:59:55;3.58;;;2.88;;
50104;SDS011;47690;39.202;-77.198;2023-02-26T18:02:32;3.33;;;2.75;;
50104;SDS011;47690;39.202;-77.198;2023-02-26T18:05:04;3.28;;;2.83;;
50104;SDS011;47690;39.202;-77.198;2023-02-26T18:07:35;3.10;;;2.50;;
50104;SDS011;47690;39.202;-77.198;2023-02-26T18:10:10;3.63;;;2.75;;
50104;SDS011;47690;39.202;-77.198;2023-02-26T18:12:56;3.17;;;2.60;;
50104;SDS011;47690;39.202;-77.198;2023-02-26T18:15:38;3.15;;;2.75;;
50104;SDS011;47690;39.202;-77.198;2023-02-26T18:18:10;2.60;;;2.40;;
50104;SDS011;47690;39.202;-77.198;2023-02-26T18:20:46;2.60;;;2.38;;
50104;SDS011;47690;39.202;-77.198;2023-02-26T18:23:19;2.53;;;2.30;;
50104;SDS011;47690;39.202;-77.198;2023-02-26T18:26:03;3.05;;;2.35;;
50104;SDS011;47690;39.202;-77.198;2023-02-26T18:28:36;2.65;;;2.42;;
50104;SDS011;47690;39.202;-77.198;2023-02-26T18:31:10;3.15;;;2.40;;
50104;SDS011;47690;39.202;-77.198;2023-02-26T18:33:43;2.88;;;2.47;;
50104;SDS011;47690;39.202;-77.198;2023-02-26T18:36:23;2.53;;;2.33;;
50104;SDS011;47690;39.202;-77.198;2023-02-26T18:39:10;2.70;;;2.30;;
50104;SDS011;47690;39.202;-77.198;2023-02-26T18:41:44;2.40;;;2.20;;
50104;SDS011;47690;39.202;-77.198;2023-02-26T18:44:22;2.47;;;2.25;;
50104;SDS011;47690;39.202;-77.198;2023-02-26T18:47:00;2.60;;;2.33;;
50104;SDS011;47690;39.202;-77.198;2023-02-26T18:49:32;2.60;;;2.40;;
50104;SDS011;47690;39.202;-77.198;2023-02-26T18:52:10;2.50;;;2.30;;
50104;SDS011;47690;39.202;-77.198;2023-02-26T18:54:43;3.30;;;2.58;;
50104;SDS011;47690;39.202;-77.198;2023-02-26T18:57:21;2.92;;;2.42;;
50104;SDS011;47690;39.202;-77.198;2023-02-26T19:00:00;2.50;;;2.22;;
50104;SDS011;47690;39.202;-77.198;2023-02-26T19:02:34;2.80;;;2.42;;
50104;SDS011;47690;39.202;-77.198;2023-02-26T19:05:04;2.70;;;2.30;;
50104;SDS011;47690;39.202;-77.198;2023-02-26T19:07:38;2.50;;;2.25;;
50104;SDS011;47690;39.202;-77.198;2023-02-26T19:10:20;3.20;;;2.58;;
50104;SDS011;47690;39.202;-77.198;2023-02-26T19:13:00;2.58;;;2.25;;
50104;SDS011;47690;39.202;-77.198;2023-02-26T19:15:32;2.58;;;2.38;;